sensor_id;sensor_type;location;lat;lon;timestamp;pressure;altitude;pressure_sealevel;temperature;humidity
59110;BME280;44895;47.438;18.978;2023-02-01T00:01:44;100172.19;;;2.69;100.00
59110;BME280;44895;47.438;18.978;2023-02-01T00:04:48;100158.41;;;2.77;100.00
59110;BME280;44895;47.438;18.978;2023-02-01T00:07:51;100146.91;;;2.53;100.00
59110;BME280;44895;47.438;18.978;2023-02-01T00:11:04;100147.31;;;2.45;100.00
59110;BME280;44895;47.438;18.978;2023-02-01T00:14:08;100160.56;;;2.64;100.00
59110;BME280;44895;47.438;18.978;2023-02-01T00:17:12;100145.22;;;2.76;100.00
59110;BME280;44895;47.438;18.978;2023-02-01T00:20:16;100155.63;;;2.72;100.00
59110;BME280;44895;47.438;18.978;2023-02-01T00:23:20;100138.25;;;2.75;100.00
59110;BME280;44895;47.438;18.978;2023-02-01T00:26:38;100137.16;;;2.76;100.00
59110;BME280;44895;47.438;18.978;2023-02-01T00:29:42;100141.97;;;2.74;100.00
59110;BME280;44895;47.438;18.978;2023-02-01T00:32:46;100141.63;;;2.70;100.00
59110;BME280;44895;47.438;18.978;2023-02-01T00:35:50;100146.75;;;2.72;100.00
59110;BME280;44895;47.438;18.978;2023-02-01T00:38:54;100141.47;;;2.77;100.00
59110;BME280;44895;47.438;18.978;2023-02-01T00:42:00;100144.91;;;2.72;100.00
59110;BME280;44895;47.438;18.978;2023-02-01T00:45:04;100140.00;;;2.69;100.00
59110;BME280;44895;47.438;18.978;2023-02-01T00:48:09;100130.97;;;2.58;100.00
59110;BME280;44895;47.438;18.978;2023-02-01T00:51:16;100132.56;;;2.59;100.00
59110;BME280;44895;47.438;18.978;2023-02-01T00:54:19;100128.16;;;2.82;100.00
59110;BME280;44895;47.438;18.978;2023-02-01T00:57:23;100138.59;;;2.96;100.00
59110;BME280;44895;47.438;18.978;2023-02-01T01:00:27;100122.97;;;2.92;100.00
59110;BME280;44895;47.438;18.978;2023-02-01T01:03:32;100121.13;;;3.10;100.00
59110;BME280;44895;47.438;18.978;2023-02-01T01:06:36;100123.88;;;2.98;100.00
59110;BME280;44895;47.438;18.978;2023-02-01T01:09:40;100121.16;;;2.81;100.00
59110;BME280;44895;47.438;18.978;2023-02-01T01:12:44;100109.00;;;2.90;100.00
59110;BME280;44895;47.438;18.978;2023-02-01T01:15:48;100107.88;;;3.03;100.00
59110;BME280;44895;47.438;18.978;2023-02-01T01:18:53;100090.63;;;2.99;100.00
59110;BME280;44895;47.438;18.978;2023-02-01T01:21:57;100068.16;;;2.88;100.00
59110;BME280;44895;47.438;18.978;2023-02-01T01:25:01;100071.09;;;2.87;100.00
59110;BME280;44895;47.438;18.978;2023-02-01T01:28:05;100082.22;;;2.78;100.00
59110;BME280;44895;47.438;18.978;2023-02-01T01:31:11;100073.94;;;2.80;100.00
59110;BME280;44895;47.438;18.978;2023-02-01T01:34:15;100069.94;;;2.66;100.00
59110;BME280;44895;47.438;18.978;2023-02-01T01:37:19;100059.69;;;2.63;100.00
59110;BME280;44895;47.438;18.978;2023-02-01T01:40:22;100067.78;;;2.51;100.00
59110;BME280;44895;47.438;18.978;2023-02-01T01:43:55;100053.94;;;2.42;100.00
59110;BME280;44895;47.438;18.978;2023-02-01T01:47:01;100068.53;;;2.34;100.00
59110;BME280;44895;47.438;18.978;2023-02-01T01:50:07;100072.53;;;2.03;100.00
59110;BME280;44895;47.438;18.978;2023-02-01T01:53:13;100073.47;;;1.97;100.00
59110;BME280;44895;47.438;18.978;2023-02-01T01:56:19;100081.13;;;2.05;100.00
59110;BME280;44895;47.438;18.978;2023-02-01T01:59:24;100071.69;;;2.02;100.00
59110;BME280;44895;47.438;18.978;2023-02-01T02:02:28;100078.97;;;2.19;100.00
59110;BME280;44895;47.438;18.978;2023-02-01T02:05:32;100069.09;;;2.19;100.00
59110;BME280;44895;47.438;18.978;2023-02-01T02:08:35;100071.78;;;2.19;100.00
59110;BME280;44895;47.438;18.978;2023-02-01T02:11:39;100067.34;;;2.13;100.00
59110;BME280;44895;47.438;18.978;2023-02-01T02:14:44;100067.06;;;2.26;100.00
59110;BME280;44895;47.438;18.978;2023-02-01T02:17:54;100071.63;;;2.26;100.00
59110;BME280;44895;47.438;18.978;2023-02-01T02:24:31;100060.06;;;2.25;100.00
59110;BME280;44895;47.438;18.978;2023-02-01T02:40:45;100051.22;;;2.25;100.00
59110;BME280;44895;47.438;18.978;2023-02-01T02:43:57;100050.41;;;1.95;100.00
59110;BME280;44895;47.438;18.978;2023-02-01T02:47:36;100058.22;;;1.85;100.00
59110;BME280;44895;47.438;18.978;2023-02-01T02:50:49;100047.06;;;1.65;100.00
59110;BME280;44895;47.438;18.978;2023-02-01T02:54:16;100052.09;;;1.37;100.00
59110;BME280;44895;47.438;18.978;2023-02-01T02:57:42;100045.09;;;1.12;100.00
59110;BME280;44895;47.438;18.978;2023-02-01T03:01:06;100048.81;;;1.11;100.00
59110;BME280;44895;47.438;18.978;2023-02-01T03:04:28;100051.06;;;1.03;100.00
59110;BME280;44895;47.438;18.978;2023-02-01T03:11:09;100042.44;;;1.01;100.00
59110;BME280;44895;47.438;18.978;2023-02-01T03:14:15;100045.78;;;0.96;100.00
59110;BME280;44895;47.438;18.978;2023-02-01T03:17:29;100049.09;;;1.22;100.00
59110;BME280;44895;47.438;18.978;2023-02-01T03:20:36;100043.72;;;1.34;100.00
59110;BME280;44895;47.438;18.978;2023-02-01T03:23:43;100052.66;;;1.39;100.00
59110;BME280;44895;47.438;18.978;2023-02-01T03:26:55;100057.22;;;1.27;100.00
59110;BME280;44895;47.438;18.978;2023-02-01T03:30:23;100049.19;;;1.27;100.00
59110;BME280;44895;47.438;18.978;2023-02-01T03:33:29;100040.09;;;1.63;100.00
59110;BME280;44895;47.438;18.978;2023-02-01T03:36:42;100027.97;;;1.73;100.00
59110;BME280;44895;47.438;18.978;2023-02-01T03:39:58;100030.69;;;2.02;100.00
59110;BME280;44895;47.438;18.978;2023-02-01T03:43:04;100033.84;;;1.99;100.00
59110;BME280;44895;47.438;18.978;2023-02-01T03:46:17;100023.47;;;2.02;100.00
59110;BME280;44895;47.438;18.978;2023-02-01T03:52:53;100027.28;;;2.06;100.00
59110;BME280;44895;47.438;18.978;2023-02-01T03:55:58;100029.44;;;2.21;100.00
59110;BME280;44895;47.438;18.978;2023-02-01T03:59:02;100022.00;;;2.23;100.00
59110;BME280;44895;47.438;18.978;2023-02-01T04:02:11;100015.34;;;2.26;100.00
59110;BME280;44895;47.438;18.978;2023-02-01T04:05:15;100010.25;;;2.41;100.00
59110;BME280;44895;47.438;18.978;2023-02-01T04:08:26;100013.50;;;2.43;100.00
59110;BME280;44895;47.438;18.978;2023-02-01T04:11:30;100021.97;;;2.52;100.00
59110;BME280;44895;47.438;18.978;2023-02-01T04:14:33;100024.41;;;2.54;100.00
59110;BME280;44895;47.438;18.978;2023-02-01T04:17:37;100014.03;;;2.57;100.00
59110;BME280;44895;47.438;18.978;2023-02-01T04:20:42;100014.56;;;2.59;100.00
59110;BME280;44895;47.438;18.978;2023-02-01T04:23:46;100017.59;;;2.63;100.00
59110;BME280;44895;47.438;18.978;2023-02-01T04:26:50;100029.44;;;2.67;100.00
59110;BME280;44895;47.438;18.978;2023-02-01T04:29:54;100028.91;;;2.65;100.00
59110;BME280;44895;47.438;18.978;2023-02-01T04:32:59;100025.25;;;2.71;100.00
59110;BME280;44895;47.438;18.978;2023-02-01T04:36:02;100036.09;;;2.65;100.00
59110;BME280;44895;47.438;18.978;2023-02-01T04:39:07;100029.56;;;2.72;100.00
59110;BME280;44895;47.438;18.978;2023-02-01T04:42:11;100032.97;;;2.68;100.00
59110;BME280;44895;47.438;18.978;2023-02-01T04:45:16;100023.69;;;2.75;100.00
59110;BME280;44895;47.438;18.978;2023-02-01T04:48:20;100027.19;;;2.76;100.00
59110;BME280;44895;47.438;18.978;2023-02-01T04:51:24;100017.28;;;2.76;100.00
59110;BME280;44895;47.438;18.978;2023-02-01T04:54:28;100030.28;;;2.85;100.00
59110;BME280;44895;47.438;18.978;2023-02-01T04:57:32;100034.59;;;2.86;100.00
59110;BME280;44895;47.438;18.978;2023-02-01T05:00:37;100038.25;;;2.80;100.00
59110;BME280;44895;47.438;18.978;2023-02-01T05:03:41;100030.59;;;2.88;100.00
59110;BME280;44895;47.438;18.978;2023-02-01T05:06:44;100024.78;;;2.91;100.00
59110;BME280;44895;47.438;18.978;2023-02-01T05:09:48;100027.38;;;2.86;100.00
59110;BME280;44895;47.438;18.978;2023-02-01T05:12:52;100029.56;;;2.89;100.00
59110;BME280;44895;47.438;18.978;2023-02-01T05:16:15;100028.19;;;2.87;100.00
59110;BME280;44895;47.438;18.978;2023-02-01T05:19:19;100029.13;;;2.98;100.00
59110;BME280;44895;47.438;18.978;2023-02-01T05:22:23;100018.34;;;3.09;100.00
59110;BME280;44895;47.438;18.978;2023-02-01T05:25:26;100023.78;;;2.98;100.00
59110;BME280;44895;47.438;18.978;2023-02-01T05:28:30;100009.44;;;3.09;100.00
59110;BME280;44895;47.438;18.978;2023-02-01T05:31:33;100016.19;;;3.12;100.00
59110;BME280;44895;47.438;18.978;2023-02-01T05:34:37;100005.56;;;3.17;100.00
59110;BME280;44895;47.438;18.978;2023-02-01T05:37:41;100017.50;;;3.09;100.00
59110;BME280;44895;47.438;18.978;2023-02-01T05:40:44;100006.22;;;3.07;100.00
59110;BME280;44895;47.438;18.978;2023-02-01T05:43:53;100011.84;;;3.05;100.00
59110;BME280;44895;47.438;18.978;2023-02-01T05:46:57;100008.41;;;3.10;100.00
59110;BME280;44895;47.438;18.978;2023-02-01T05:50:02;100021.09;;;3.15;100.00
59110;BME280;44895;47.438;18.978;2023-02-01T05:53:06;100016.13;;;3.06;100.00
59110;BME280;44895;47.438;18.978;2023-02-01T05:56:09;100034.91;;;3.23;100.00
59110;BME280;44895;47.438;18.978;2023-02-01T05:59:13;100034.97;;;3.29;100.00
59110;BME280;44895;47.438;18.978;2023-02-01T06:02:17;100036.03;;;3.28;100.00
59110;BME280;44895;47.438;18.978;2023-02-01T06:05:21;100033.84;;;3.24;100.00
59110;BME280;44895;47.438;18.978;2023-02-01T06:08:25;100045.28;;;3.37;100.00
59110;BME280;44895;47.438;18.978;2023-02-01T06:11:29;100038.53;;;3.34;100.00
59110;BME280;44895;47.438;18.978;2023-02-01T06:14:33;100029.28;;;3.25;100.00
59110;BME280;44895;47.438;18.978;2023-02-01T06:17:37;100044.25;;;3.38;100.00
59110;BME280;44895;47.438;18.978;2023-02-01T06:20:41;100058.88;;;3.47;100.00
59110;BME280;44895;47.438;18.978;2023-02-01T06:23:45;100070.09;;;3.44;100.00
59110;BME280;44895;47.438;18.978;2023-02-01T06:26:49;100071.66;;;3.40;100.00
59110;BME280;44895;47.438;18.978;2023-02-01T06:29:53;100052.22;;;3.50;100.00
59110;BME280;44895;47.438;18.978;2023-02-01T06:32:58;100060.66;;;3.41;100.00
59110;BME280;44895;47.438;18.978;2023-02-01T06:36:05;100067.19;;;3.29;100.00
59110;BME280;44895;47.438;18.978;2023-02-01T06:39:10;100056.75;;;3.49;100.00
59110;BME280;44895;47.438;18.978;2023-02-01T06:42:16;100051.69;;;3.53;100.00
59110;BME280;44895;47.438;18.978;2023-02-01T06:45:19;100066.69;;;3.49;100.00
59110;BME280;44895;47.438;18.978;2023-02-01T06:48:24;100053.72;;;3.63;100.00
59110;BME280;44895;47.438;18.978;2023-02-01T06:51:27;100069.41;;;3.71;100.00
59110;BME280;44895;47.438;18.978;2023-02-01T06:54:34;100067.53;;;3.71;100.00
59110;BME280;44895;47.438;18.978;2023-02-01T06:57:40;100063.09;;;3.82;100.00
59110;BME280;44895;47.438;18.978;2023-02-01T07:00:44;100066.94;;;3.86;100.00
59110;BME280;44895;47.438;18.978;2023-02-01T07:03:49;100067.59;;;3.77;100.00
59110;BME280;44895;47.438;18.978;2023-02-01T07:06:54;100067.75;;;3.87;100.00
59110;BME280;44895;47.438;18.978;2023-02-01T07:09:58;100069.72;;;3.74;100.00
59110;BME280;44895;47.438;18.978;2023-02-01T07:13:01;100085.22;;;3.89;100.00
59110;BME280;44895;47.438;18.978;2023-02-01T07:16:11;100079.97;;;4.00;100.00
59110;BME280;44895;47.438;18.978;2023-02-01T07:19:15;100094.69;;;4.14;100.00
59110;BME280;44895;47.438;18.978;2023-02-01T07:22:19;100099.13;;;4.75;100.00
59110;BME280;44895;47.438;18.978;2023-02-01T07:25:23;100100.31;;;5.60;100.00
59110;BME280;44895;47.438;18.978;2023-02-01T07:28:29;100114.78;;;5.91;100.00
59110;BME280;44895;47.438;18.978;2023-02-01T07:31:34;100116.19;;;5.99;100.00
59110;BME280;44895;47.438;18.978;2023-02-01T07:34:37;100110.50;;;6.64;100.00
59110;BME280;44895;47.438;18.978;2023-02-01T07:37:41;100102.97;;;8.35;100.00
59110;BME280;44895;47.438;18.978;2023-02-01T07:40:45;100106.91;;;9.37;100.00
59110;BME280;44895;47.438;18.978;2023-02-01T07:43:52;100106.84;;;9.13;100.00
59110;BME280;44895;47.438;18.978;2023-02-01T07:46:56;100108.22;;;9.10;100.00
59110;BME280;44895;47.438;18.978;2023-02-01T07:49:59;100108.69;;;9.23;100.00
59110;BME280;44895;47.438;18.978;2023-02-01T07:53:03;100103.47;;;8.97;100.00
59110;BME280;44895;47.438;18.978;2023-02-01T07:56:13;100108.75;;;8.18;100.00
59110;BME280;44895;47.438;18.978;2023-02-01T07:59:17;100107.28;;;8.46;100.00
59110;BME280;44895;47.438;18.978;2023-02-01T08:02:21;100110.50;;;8.53;100.00
59110;BME280;44895;47.438;18.978;2023-02-01T08:05:25;100108.38;;;7.48;100.00
59110;BME280;44895;47.438;18.978;2023-02-01T08:08:28;100112.47;;;7.10;100.00
59110;BME280;44895;47.438;18.978;2023-02-01T08:11:32;100113.75;;;6.76;100.00
59110;BME280;44895;47.438;18.978;2023-02-01T08:14:36;100113.09;;;6.28;100.00
59110;BME280;44895;47.438;18.978;2023-02-01T08:17:40;100124.59;;;7.28;100.00
59110;BME280;44895;47.438;18.978;2023-02-01T08:20:44;100123.81;;;7.27;100.00
59110;BME280;44895;47.438;18.978;2023-02-01T08:23:49;100141.00;;;6.64;100.00
59110;BME280;44895;47.438;18.978;2023-02-01T08:26:53;100144.78;;;6.00;100.00
59110;BME280;44895;47.438;18.978;2023-02-01T08:29:56;100152.59;;;6.01;100.00
59110;BME280;44895;47.438;18.978;2023-02-01T08:33:00;100156.88;;;6.50;100.00
59110;BME280;44895;47.438;18.978;2023-02-01T08:36:05;100165.41;;;7.26;100.00
59110;BME280;44895;47.438;18.978;2023-02-01T08:39:10;100158.88;;;7.89;100.00
59110;BME280;44895;47.438;18.978;2023-02-01T08:42:14;100148.38;;;7.57;100.00
59110;BME280;44895;47.438;18.978;2023-02-01T08:45:36;100154.00;;;7.91;100.00
59110;BME280;44895;47.438;18.978;2023-02-01T08:48:40;100147.63;;;8.37;100.00
59110;BME280;44895;47.438;18.978;2023-02-01T08:51:44;100146.69;;;7.97;100.00
59110;BME280;44895;47.438;18.978;2023-02-01T08:54:48;100148.03;;;8.05;100.00
59110;BME280;44895;47.438;18.978;2023-02-01T08:57:51;100156.19;;;7.01;100.00
59110;BME280;44895;47.438;18.978;2023-02-01T09:00:55;100153.19;;;6.88;100.00
59110;BME280;44895;47.438;18.978;2023-02-01T09:03:58;100151.06;;;7.26;100.00
59110;BME280;44895;47.438;18.978;2023-02-01T09:07:02;100144.34;;;7.49;100.00
59110;BME280;44895;47.438;18.978;2023-02-01T09:10:06;100145.91;;;6.83;100.00
59110;BME280;44895;47.438;18.978;2023-02-01T09:13:10;100140.25;;;7.62;100.00
59110;BME280;44895;47.438;18.978;2023-02-01T09:16:14;100124.22;;;8.02;100.00
59110;BME280;44895;47.438;18.978;2023-02-01T09:19:18;100131.50;;;8.06;100.00
59110;BME280;44895;47.438;18.978;2023-02-01T09:22:22;100139.28;;;8.89;100.00
59110;BME280;44895;47.438;18.978;2023-02-01T09:25:26;100118.97;;;9.21;100.00
59110;BME280;44895;47.438;18.978;2023-02-01T09:28:30;100118.69;;;9.57;100.00
59110;BME280;44895;47.438;18.978;2023-02-01T09:31:34;100124.97;;;8.18;100.00
59110;BME280;44895;47.438;18.978;2023-02-01T09:34:38;100138.81;;;9.51;100.00
59110;BME280;44895;47.438;18.978;2023-02-01T09:37:42;100141.31;;;9.07;100.00
59110;BME280;44895;47.438;18.978;2023-02-01T09:40:46;100152.22;;;8.97;100.00
59110;BME280;44895;47.438;18.978;2023-02-01T09:43:59;100158.88;;;8.65;100.00
59110;BME280;44895;47.438;18.978;2023-02-01T09:47:25;100161.50;;;8.20;100.00
59110;BME280;44895;47.438;18.978;2023-02-01T09:50:35;100160.22;;;7.97;100.00
59110;BME280;44895;47.438;18.978;2023-02-01T09:53:43;100139.09;;;7.99;100.00
59110;BME280;44895;47.438;18.978;2023-02-01T09:57:19;100147.81;;;7.70;100.00
59110;BME280;44895;47.438;18.978;2023-02-01T10:00:34;100145.34;;;7.99;100.00
59110;BME280;44895;47.438;18.978;2023-02-01T10:03:38;100144.44;;;8.25;100.00
59110;BME280;44895;47.438;18.978;2023-02-01T10:10:06;100118.47;;;8.79;100.00
59110;BME280;44895;47.438;18.978;2023-02-01T10:27:34;100086.22;;;7.51;100.00
59110;BME280;44895;47.438;18.978;2023-02-01T10:30:44;100089.75;;;6.95;100.00
59110;BME280;44895;47.438;18.978;2023-02-01T10:33:57;100091.09;;;7.34;100.00
59110;BME280;44895;47.438;18.978;2023-02-01T10:37:09;100072.44;;;7.53;100.00
59110;BME280;44895;47.438;18.978;2023-02-01T10:40:24;100075.94;;;7.59;100.00
59110;BME280;44895;47.438;18.978;2023-02-01T10:43:28;100068.53;;;7.90;100.00
59110;BME280;44895;47.438;18.978;2023-02-01T10:46:33;100074.81;;;7.70;100.00
59110;BME280;44895;47.438;18.978;2023-02-01T10:49:43;100082.69;;;7.66;100.00
59110;BME280;44895;47.438;18.978;2023-02-01T10:52:56;100088.41;;;7.39;100.00
59110;BME280;44895;47.438;18.978;2023-02-01T10:56:09;100076.53;;;7.14;100.00
59110;BME280;44895;47.438;18.978;2023-02-01T10:59:19;100073.56;;;7.16;100.00
59110;BME280;44895;47.438;18.978;2023-02-01T11:02:29;100064.38;;;7.32;100.00
59110;BME280;44895;47.438;18.978;2023-02-01T11:05:44;100064.09;;;7.18;100.00
59110;BME280;44895;47.438;18.978;2023-02-01T11:08:54;100070.59;;;7.07;100.00
59110;BME280;44895;47.438;18.978;2023-02-01T11:11:59;100059.47;;;7.40;100.00
59110;BME280;44895;47.438;18.978;2023-02-01T11:18:27;100044.63;;;7.37;100.00
59110;BME280;44895;47.438;18.978;2023-02-01T11:21:33;100041.91;;;7.37;100.00
59110;BME280;44895;47.438;18.978;2023-02-01T11:24:38;100041.69;;;7.13;100.00
59110;BME280;44895;47.438;18.978;2023-02-01T11:27:43;100030.63;;;6.99;100.00
59110;BME280;44895;47.438;18.978;2023-02-01T11:30:47;100027.63;;;6.95;100.00
59110;BME280;44895;47.438;18.978;2023-02-01T11:33:55;100030.63;;;6.89;100.00
59110;BME280;44895;47.438;18.978;2023-02-01T11:37:01;100019.28;;;6.81;100.00
59110;BME280;44895;47.438;18.978;2023-02-01T11:43:26;100013.59;;;6.47;100.00
59110;BME280;44895;47.438;18.978;2023-02-01T11:46:33;100013.59;;;6.52;100.00
59110;BME280;44895;47.438;18.978;2023-02-01T11:49:36;100009.81;;;6.63;100.00
59110;BME280;44895;47.438;18.978;2023-02-01T11:52:43;100013.59;;;6.47;100.00
59110;BME280;44895;47.438;18.978;2023-02-01T11:59:27;99996.59;;;6.36;100.00
59110;BME280;44895;47.438;18.978;2023-02-01T12:06:53;99989.78;;;6.18;100.00
59110;BME280;44895;47.438;18.978;2023-02-01T12:16:28;100008.44;;;5.13;100.00
59110;BME280;44895;47.438;18.978;2023-02-01T12:26:56;100025.28;;;4.66;100.00
59110;BME280;44895;47.438;18.978;2023-02-01T12:33:43;100023.06;;;4.30;100.00
59110;BME280;44895;47.438;18.978;2023-02-01T12:50:43;100002.97;;;4.38;100.00
59110;BME280;44895;47.438;18.978;2023-02-01T12:53:55;100007.63;;;4.20;100.00
59110;BME280;44895;47.438;18.978;2023-02-01T12:57:03;100001.50;;;4.52;100.00
59110;BME280;44895;47.438;18.978;2023-02-01T13:00:22;99995.13;;;4.59;100.00
59110;BME280;44895;47.438;18.978;2023-02-01T13:06:58;99978.66;;;4.93;100.00
59110;BME280;44895;47.438;18.978;2023-02-01T13:17:04;99966.09;;;4.66;100.00
59110;BME280;44895;47.438;18.978;2023-02-01T13:23:31;99955.78;;;4.52;100.00
59110;BME280;44895;47.438;18.978;2023-02-01T13:26:35;99958.75;;;4.56;100.00
59110;BME280;44895;47.438;18.978;2023-02-01T13:37:04;99938.44;;;4.38;100.00
59110;BME280;44895;47.438;18.978;2023-02-01T13:40:41;99956.69;;;4.31;100.00
59110;BME280;44895;47.438;18.978;2023-02-01T13:43:50;99950.72;;;4.29;100.00
59110;BME280;44895;47.438;18.978;2023-02-01T13:46:58;99958.31;;;4.37;100.00
59110;BME280;44895;47.438;18.978;2023-02-01T13:50:25;99963.66;;;4.32;100.00
59110;BME280;44895;47.438;18.978;2023-02-01T13:53:33;99970.63;;;4.28;100.00
59110;BME280;44895;47.438;18.978;2023-02-01T13:56:42;99965.81;;;4.30;100.00
59110;BME280;44895;47.438;18.978;2023-02-01T13:59:50;99970.56;;;4.22;100.00
59110;BME280;44895;47.438;18.978;2023-02-01T14:09:32;99960.50;;;4.13;100.00
59110;BME280;44895;47.438;18.978;2023-02-01T14:12:46;99956.28;;;4.49;100.00
59110;BME280;44895;47.438;18.978;2023-02-01T14:19:18;99950.09;;;4.49;100.00
59110;BME280;44895;47.438;18.978;2023-02-01T14:22:35;99947.16;;;4.23;100.00
59110;BME280;44895;47.438;18.978;2023-02-01T14:25:39;99959.44;;;4.41;100.00
59110;BME280;44895;47.438;18.978;2023-02-01T14:28:46;99967.47;;;4.36;100.00
59110;BME280;44895;47.438;18.978;2023-02-01T14:35:20;99951.81;;;4.60;100.00
59110;BME280;44895;47.438;18.978;2023-02-01T14:38:25;99965.56;;;4.64;100.00
59110;BME280;44895;47.438;18.978;2023-02-01T14:41:32;99956.06;;;4.56;100.00
59110;BME280;44895;47.438;18.978;2023-02-01T14:44:36;99942.97;;;4.70;100.00
59110;BME280;44895;47.438;18.978;2023-02-01T14:47:40;99954.22;;;4.94;100.00
59110;BME280;44895;47.438;18.978;2023-02-01T14:50:47;99968.47;;;4.95;100.00
59110;BME280;44895;47.438;18.978;2023-02-01T14:53:53;99962.16;;;4.79;100.00
59110;BME280;44895;47.438;18.978;2023-02-01T14:56:57;99961.09;;;4.80;100.00
59110;BME280;44895;47.438;18.978;2023-02-01T15:00:18;99954.31;;;4.72;100.00
59110;BME280;44895;47.438;18.978;2023-02-01T15:06:57;99951.06;;;4.70;100.00
59110;BME280;44895;47.438;18.978;2023-02-01T15:10:02;99955.81;;;4.57;100.00
59110;BME280;44895;47.438;18.978;2023-02-01T15:13:18;99956.66;;;4.63;100.00
59110;BME280;44895;47.438;18.978;2023-02-01T15:16:23;99951.28;;;4.63;100.00
59110;BME280;44895;47.438;18.978;2023-02-01T15:19:29;99951.88;;;4.70;100.00
59110;BME280;44895;47.438;18.978;2023-02-01T15:22:34;99947.94;;;4.51;100.00
59110;BME280;44895;47.438;18.978;2023-02-01T15:25:39;99950.97;;;4.60;100.00
59110;BME280;44895;47.438;18.978;2023-02-01T15:28:42;99956.06;;;4.56;100.00
59110;BME280;44895;47.438;18.978;2023-02-01T15:31:49;99950.13;;;4.54;100.00
59110;BME280;44895;47.438;18.978;2023-02-01T15:34:53;99957.88;;;4.45;100.00
59110;BME280;44895;47.438;18.978;2023-02-01T15:41:30;99962.59;;;4.33;100.00
59110;BME280;44895;47.438;18.978;2023-02-01T15:44:40;99971.22;;;4.35;100.00
59110;BME280;44895;47.438;18.978;2023-02-01T15:47:47;99963.56;;;4.21;100.00
59110;BME280;44895;47.438;18.978;2023-02-01T15:50:54;99961.44;;;4.23;100.00
59110;BME280;44895;47.438;18.978;2023-02-01T15:54:06;99962.81;;;4.26;100.00
59110;BME280;44895;47.438;18.978;2023-02-01T15:57:22;99977.00;;;4.21;100.00
59110;BME280;44895;47.438;18.978;2023-02-01T16:00:44;99973.72;;;4.14;100.00
59110;BME280;44895;47.438;18.978;2023-02-01T16:04:23;99983.38;;;4.15;100.00
59110;BME280;44895;47.438;18.978;2023-02-01T16:07:27;99986.84;;;4.38;100.00
59110;BME280;44895;47.438;18.978;2023-02-01T16:10:39;99984.94;;;4.33;100.00
59110;BME280;44895;47.438;18.978;2023-02-01T16:13:44;100006.53;;;4.44;100.00
59110;BME280;44895;47.438;18.978;2023-02-01T16:16:48;100024.63;;;4.53;100.00
59110;BME280;44895;47.438;18.978;2023-02-01T16:19:52;100009.88;;;4.29;100.00
59110;BME280;44895;47.438;18.978;2023-02-01T16:22:56;100014.19;;;4.30;100.00
59110;BME280;44895;47.438;18.978;2023-02-01T16:26:01;100013.47;;;4.39;100.00
59110;BME280;44895;47.438;18.978;2023-02-01T16:29:05;100004.56;;;4.34;100.00
59110;BME280;44895;47.438;18.978;2023-02-01T16:32:17;100014.31;;;4.40;100.00
59110;BME280;44895;47.438;18.978;2023-02-01T16:35:25;100024.75;;;4.36;100.00
59110;BME280;44895;47.438;18.978;2023-02-01T16:38:31;100014.31;;;4.40;100.00
59110;BME280;44895;47.438;18.978;2023-02-01T16:41:35;100009.88;;;4.29;100.00
59110;BME280;44895;47.438;18.978;2023-02-01T16:44:39;99999.34;;;4.22;100.00
59110;BME280;44895;47.438;18.978;2023-02-01T16:47:47;99995.03;;;4.21;100.00
59110;BME280;44895;47.438;18.978;2023-02-01T16:51:00;99995.03;;;4.21;100.00
59110;BME280;44895;47.438;18.978;2023-02-01T16:54:04;99979.16;;;4.19;100.00
59110;BME280;44895;47.438;18.978;2023-02-01T16:57:14;99978.22;;;4.08;100.00
59110;BME280;44895;47.438;18.978;2023-02-01T17:00:18;99968.16;;;3.99;100.00
59110;BME280;44895;47.438;18.978;2023-02-01T17:03:23;99955.38;;;3.84;100.00
59110;BME280;44895;47.438;18.978;2023-02-01T17:06:28;99958.31;;;3.82;100.00
59110;BME280;44895;47.438;18.978;2023-02-01T17:09:33;99963.25;;;3.90;100.00
59110;BME280;44895;47.438;18.978;2023-02-01T17:12:38;99974.06;;;3.96;100.00
59110;BME280;44895;47.438;18.978;2023-02-01T17:16:05;99962.38;;;3.85;100.00
59110;BME280;44895;47.438;18.978;2023-02-01T17:19:15;99961.06;;;3.87;100.00
59110;BME280;44895;47.438;18.978;2023-02-01T17:22:20;99961.72;;;4.00;100.00
59110;BME280;44895;47.438;18.978;2023-02-01T17:25:26;99960.66;;;4.01;100.00
59110;BME280;44895;47.438;18.978;2023-02-01T17:28:31;99963.00;;;3.92;100.00
59110;BME280;44895;47.438;18.978;2023-02-01T17:31:43;99956.56;;;3.93;100.00
59110;BME280;44895;47.438;18.978;2023-02-01T17:34:48;99953.03;;;3.92;100.00
59110;BME280;44895;47.438;18.978;2023-02-01T17:37:52;99957.63;;;3.92;100.00
59110;BME280;44895;47.438;18.978;2023-02-01T17:40:56;99964.88;;;3.91;100.00
59110;BME280;44895;47.438;18.978;2023-02-01T17:44:01;99965.06;;;3.85;100.00
59110;BME280;44895;47.438;18.978;2023-02-01T17:47:05;99963.16;;;3.80;100.00
59110;BME280;44895;47.438;18.978;2023-02-01T17:50:10;99964.31;;;3.89;100.00
59110;BME280;44895;47.438;18.978;2023-02-01T17:53:15;99960.47;;;3.80;100.00
59110;BME280;44895;47.438;18.978;2023-02-01T17:56:24;99958.81;;;3.79;100.00
59110;BME280;44895;47.438;18.978;2023-02-01T17:59:28;99974.63;;;3.75;100.00
59110;BME280;44895;47.438;18.978;2023-02-01T18:02:32;99970.47;;;3.63;100.00
59110;BME280;44895;47.438;18.978;2023-02-01T18:05:41;99974.38;;;3.77;100.00
59110;BME280;44895;47.438;18.978;2023-02-01T18:08:47;99976.94;;;3.67;100.00
59110;BME280;44895;47.438;18.978;2023-02-01T18:11:51;99982.63;;;3.70;100.00
59110;BME280;44895;47.438;18.978;2023-02-01T18:14:57;99980.69;;;3.66;100.00
59110;BME280;44895;47.438;18.978;2023-02-01T18:18:02;99972.81;;;3.59;100.00